sensor_id;sensor_type;location;lat;lon;timestamp;P1;durP1;ratioP1;P2;durP2;ratioP2
30515;SDS011;17297;54.022;10.760;2022-10-31T00:00:47;9.45;;;7.65;;
30515;SDS011;17297;54.022;10.760;2022-10-31T00:03:13;7.82;;;6.75;;
30515;SDS011;17297;54.022;10.760;2022-10-31T00:05:42;10.13;;;8.10;;
30515;SDS011;17297;54.022;10.760;2022-10-31T00:08:09;9.80;;;7.50;;
30515;SDS011;17297;54.022;10.760;2022-10-31T00:10:37;7.93;;;6.50;;
30515;SDS011;17297;54.022;10.760;2022-10-31T00:13:06;8.68;;;7.60;;
30515;SDS011;17297;54.022;10.760;2022-10-31T00:15:32;10.63;;;8.63;;
30515;SDS011;17297;54.022;10.760;2022-10-31T00:18:02;11.82;;;8.52;;
30515;SDS011;17297;54.022;10.760;2022-10-31T00:20:29;10.02;;;7.07;;
30515;SDS011;17297;54.022;10.760;2022-10-31T00:22:57;8.60;;;7.55;;
30515;SDS011;17297;54.022;10.760;2022-10-31T00:25:22;11.75;;;8.75;;
30515;SDS011;17297;54.022;10.760;2022-10-31T00:27:48;11.20;;;8.45;;
30515;SDS011;17297;54.022;10.760;2022-10-31T00:30:13;9.50;;;6.78;;
30515;SDS011;17297;54.022;10.760;2022-10-31T00:32:40;9.35;;;6.93;;
30515;SDS011;17297;54.022;10.760;2022-10-31T00:35:05;11.23;;;7.82;;
30515;SDS011;17297;54.022;10.760;2022-10-31T00:37:30;9.57;;;7.28;;
30515;SDS011;17297;54.022;10.760;2022-10-31T00:39:56;12.32;;;8.73;;
30515;SDS011;17297;54.022;10.760;2022-10-31T00:42:21;9.38;;;7.63;;
30515;SDS011;17297;54.022;10.760;2022-10-31T00:44:46;10.35;;;7.43;;
30515;SDS011;17297;54.022;10.760;2022-10-31T00:47:12;9.68;;;8.20;;
30515;SDS011;17297;54.022;10.760;2022-10-31T00:49:37;11.57;;;8.20;;
30515;SDS011;17297;54.022;10.760;2022-10-31T00:52:02;16.88;;;9.88;;
30515;SDS011;17297;54.022;10.760;2022-10-31T00:54:28;9.05;;;6.88;;
30515;SDS011;17297;54.022;10.760;2022-10-31T00:56:53;9.70;;;8.60;;
30515;SDS011;17297;54.022;10.760;2022-10-31T00:59:19;11.18;;;7.00;;
30515;SDS011;17297;54.022;10.760;2022-10-31T01:01:44;9.43;;;8.10;;
30515;SDS011;17297;54.022;10.760;2022-10-31T01:04:10;10.20;;;7.60;;
30515;SDS011;17297;54.022;10.760;2022-10-31T01:06:35;9.60;;;7.35;;
30515;SDS011;17297;54.022;10.760;2022-10-31T01:09:00;9.93;;;7.28;;
30515;SDS011;17297;54.022;10.760;2022-10-31T01:11:26;13.00;;;8.32;;
30515;SDS011;17297;54.022;10.760;2022-10-31T01:13:52;11.25;;;7.45;;
30515;SDS011;17297;54.022;10.760;2022-10-31T01:16:20;9.80;;;6.55;;
30515;SDS011;17297;54.022;10.760;2022-10-31T01:18:48;11.77;;;7.50;;
30515;SDS011;17297;54.022;10.760;2022-10-31T01:21:16;9.27;;;7.10;;
30515;SDS011;17297;54.022;10.760;2022-10-31T01:23:47;10.90;;;7.07;;
30515;SDS011;17297;54.022;10.760;2022-10-31T01:26:17;9.80;;;7.22;;
30515;SDS011;17297;54.022;10.760;2022-10-31T01:28:46;8.25;;;6.40;;
30515;SDS011;17297;54.022;10.760;2022-10-31T01:31:17;8.13;;;6.72;;
30515;SDS011;17297;54.022;10.760;2022-10-31T01:33:44;6.70;;;5.97;;
30515;SDS011;17297;54.022;10.760;2022-10-31T01:36:14;12.45;;;7.68;;
30515;SDS011;17297;54.022;10.760;2022-10-31T01:38:51;7.50;;;6.22;;
30515;SDS011;17297;54.022;10.760;2022-10-31T01:41:19;10.75;;;7.85;;
30515;SDS011;17297;54.022;10.760;2022-10-31T01:43:53;9.68;;;7.50;;
30515;SDS011;17297;54.022;10.760;2022-10-31T01:46:34;8.70;;;7.80;;
30515;SDS011;17297;54.022;10.760;2022-10-31T01:49:05;8.23;;;7.00;;
30515;SDS011;17297;54.022;10.760;2022-10-31T01:51:36;8.43;;;6.43;;
30515;SDS011;17297;54.022;10.760;2022-10-31T01:54:07;7.63;;;6.60;;
30515;SDS011;17297;54.022;10.760;2022-10-31T01:56:38;8.73;;;7.70;;
30515;SDS011;17297;54.022;10.760;2022-10-31T01:59:07;9.02;;;7.57;;
30515;SDS011;17297;54.022;10.760;2022-10-31T02:01:36;9.63;;;7.80;;
30515;SDS011;17297;54.022;10.760;2022-10-31T02:04:02;12.48;;;8.10;;
30515;SDS011;17297;54.022;10.760;2022-10-31T02:09:09;11.82;;;7.88;;
30515;SDS011;17297;54.022;10.760;2022-10-31T02:11:37;11.35;;;7.28;;
30515;SDS011;17297;54.022;10.760;2022-10-31T02:14:03;9.25;;;7.47;;
30515;SDS011;17297;54.022;10.760;2022-10-31T02:16:28;11.27;;;7.35;;
30515;SDS011;17297;54.022;10.760;2022-10-31T02:18:54;9.68;;;7.43;;
30515;SDS011;17297;54.022;10.760;2022-10-31T02:26:58;8.07;;;6.53;;
30515;SDS011;17297;54.022;10.760;2022-10-31T02:32:20;11.18;;;8.35;;
30515;SDS011;17297;54.022;10.760;2022-10-31T02:35:13;9.95;;;7.93;;
30515;SDS011;17297;54.022;10.760;2022-10-31T02:37:51;9.18;;;7.40;;
30515;SDS011;17297;54.022;10.760;2022-10-31T02:41:25;9.07;;;7.73;;
30515;SDS011;17297;54.022;10.760;2022-10-31T02:46:24;9.55;;;7.85;;
30515;SDS011;17297;54.022;10.760;2022-10-31T02:49:00;11.82;;;8.45;;
30515;SDS011;17297;54.022;10.760;2022-10-31T02:51:31;13.65;;;8.23;;
30515;SDS011;17297;54.022;10.760;2022-10-31T02:53:56;14.52;;;9.80;;
30515;SDS011;17297;54.022;10.760;2022-10-31T02:56:22;11.23;;;8.27;;
30515;SDS011;17297;54.022;10.760;2022-10-31T03:03:53;11.35;;;8.05;;
30515;SDS011;17297;54.022;10.760;2022-10-31T03:06:35;9.57;;;7.97;;
30515;SDS011;17297;54.022;10.760;2022-10-31T03:11:50;12.23;;;8.07;;
30515;SDS011;17297;54.022;10.760;2022-10-31T03:14:26;11.68;;;9.40;;
30515;SDS011;17297;54.022;10.760;2022-10-31T03:16:59;11.82;;;9.73;;
30515;SDS011;17297;54.022;10.760;2022-10-31T03:19:31;12.95;;;9.07;;
30515;SDS011;17297;54.022;10.760;2022-10-31T03:22:25;10.65;;;8.65;;
30515;SDS011;17297;54.022;10.760;2022-10-31T03:24:50;15.38;;;9.80;;
30515;SDS011;17297;54.022;10.760;2022-10-31T03:27:26;13.73;;;9.70;;
30515;SDS011;17297;54.022;10.760;2022-10-31T03:29:55;14.30;;;10.40;;
30515;SDS011;17297;54.022;10.760;2022-10-31T03:32:34;13.25;;;10.45;;
30515;SDS011;17297;54.022;10.760;2022-10-31T03:35:03;15.52;;;10.52;;
30515;SDS011;17297;54.022;10.760;2022-10-31T03:37:33;17.30;;;11.18;;
30515;SDS011;17297;54.022;10.760;2022-10-31T03:40:01;15.93;;;11.35;;
30515;SDS011;17297;54.022;10.760;2022-10-31T03:42:32;22.17;;;13.00;;
30515;SDS011;17297;54.022;10.760;2022-10-31T03:47:36;20.60;;;12.27;;
30515;SDS011;17297;54.022;10.760;2022-10-31T03:50:03;18.50;;;11.32;;
30515;SDS011;17297;54.022;10.760;2022-10-31T03:55:42;18.63;;;12.52;;
30515;SDS011;17297;54.022;10.760;2022-10-31T03:58:21;21.77;;;13.55;;
30515;SDS011;17297;54.022;10.760;2022-10-31T04:00:52;15.85;;;10.77;;
30515;SDS011;17297;54.022;10.760;2022-10-31T04:03:22;18.00;;;12.27;;
30515;SDS011;17297;54.022;10.760;2022-10-31T04:05:53;14.68;;;11.20;;
30515;SDS011;17297;54.022;10.760;2022-10-31T04:08:23;18.30;;;12.32;;
30515;SDS011;17297;54.022;10.760;2022-10-31T04:10:53;17.83;;;11.90;;
30515;SDS011;17297;54.022;10.760;2022-10-31T04:13:22;16.98;;;11.23;;
30515;SDS011;17297;54.022;10.760;2022-10-31T04:16:01;18.08;;;11.43;;
30515;SDS011;17297;54.022;10.760;2022-10-31T04:18:27;17.75;;;11.07;;
30515;SDS011;17297;54.022;10.760;2022-10-31T04:21:02;19.58;;;12.88;;
30515;SDS011;17297;54.022;10.760;2022-10-31T04:23:29;15.85;;;11.15;;
30515;SDS011;17297;54.022;10.760;2022-10-31T04:25:55;15.63;;;10.65;;
30515;SDS011;17297;54.022;10.760;2022-10-31T04:28:21;15.80;;;11.63;;
30515;SDS011;17297;54.022;10.760;2022-10-31T04:30:47;14.88;;;11.25;;
30515;SDS011;17297;54.022;10.760;2022-10-31T04:33:13;17.20;;;11.52;;
30515;SDS011;17297;54.022;10.760;2022-10-31T04:35:38;18.17;;;11.73;;
30515;SDS011;17297;54.022;10.760;2022-10-31T04:38:04;16.30;;;11.43;;
30515;SDS011;17297;54.022;10.760;2022-10-31T04:40:30;15.07;;;9.93;;
30515;SDS011;17297;54.022;10.760;2022-10-31T04:43:22;13.05;;;9.23;;
30515;SDS011;17297;54.022;10.760;2022-10-31T04:45:47;15.52;;;10.80;;
30515;SDS011;17297;54.022;10.760;2022-10-31T04:48:13;14.23;;;10.65;;
30515;SDS011;17297;54.022;10.760;2022-10-31T04:50:41;14.02;;;9.77;;
30515;SDS011;17297;54.022;10.760;2022-10-31T04:53:06;14.10;;;10.93;;
30515;SDS011;17297;54.022;10.760;2022-10-31T04:55:38;13.98;;;10.00;;
30515;SDS011;17297;54.022;10.760;2022-10-31T04:58:17;15.38;;;10.45;;
30515;SDS011;17297;54.022;10.760;2022-10-31T05:00:43;13.45;;;9.13;;
30515;SDS011;17297;54.022;10.760;2022-10-31T05:03:08;15.55;;;12.10;;
30515;SDS011;17297;54.022;10.760;2022-10-31T05:05:34;11.55;;;8.50;;
30515;SDS011;17297;54.022;10.760;2022-10-31T05:08:02;12.30;;;8.98;;
30515;SDS011;17297;54.022;10.760;2022-10-31T05:10:29;13.63;;;10.57;;
30515;SDS011;17297;54.022;10.760;2022-10-31T05:12:59;14.25;;;9.93;;
30515;SDS011;17297;54.022;10.760;2022-10-31T05:15:49;14.73;;;10.25;;
30515;SDS011;17297;54.022;10.760;2022-10-31T05:18:53;13.82;;;9.88;;
30515;SDS011;17297;54.022;10.760;2022-10-31T05:21:27;15.60;;;11.52;;
30515;SDS011;17297;54.022;10.760;2022-10-31T05:23:57;13.88;;;10.27;;
30515;SDS011;17297;54.022;10.760;2022-10-31T05:26:23;14.35;;;9.80;;
30515;SDS011;17297;54.022;10.760;2022-10-31T05:28:51;13.93;;;11.05;;
30515;SDS011;17297;54.022;10.760;2022-10-31T05:31:16;16.67;;;10.95;;
30515;SDS011;17297;54.022;10.760;2022-10-31T05:33:42;14.93;;;10.85;;
30515;SDS011;17297;54.022;10.760;2022-10-31T05:36:27;13.80;;;10.13;;
30515;SDS011;17297;54.022;10.760;2022-10-31T05:38:57;12.65;;;9.13;;
30515;SDS011;17297;54.022;10.760;2022-10-31T05:41:25;15.38;;;10.95;;
30515;SDS011;17297;54.022;10.760;2022-10-31T05:43:57;17.25;;;11.13;;
30515;SDS011;17297;54.022;10.760;2022-10-31T05:46:27;15.38;;;10.75;;
30515;SDS011;17297;54.022;10.760;2022-10-31T05:49:10;17.75;;;11.32;;
30515;SDS011;17297;54.022;10.760;2022-10-31T05:51:54;16.80;;;10.40;;
30515;SDS011;17297;54.022;10.760;2022-10-31T05:54:26;15.50;;;10.40;;
30515;SDS011;17297;54.022;10.760;2022-10-31T05:56:52;20.20;;;11.73;;
30515;SDS011;17297;54.022;10.760;2022-10-31T05:59:17;19.00;;;10.98;;
30515;SDS011;17297;54.022;10.760;2022-10-31T06:01:43;20.25;;;11.50;;
30515;SDS011;17297;54.022;10.760;2022-10-31T06:04:24;18.20;;;10.90;;
30515;SDS011;17297;54.022;10.760;2022-10-31T06:06:49;16.20;;;11.13;;
30515;SDS011;17297;54.022;10.760;2022-10-31T06:09:15;18.35;;;11.65;;
30515;SDS011;17297;54.022;10.760;2022-10-31T06:11:41;17.65;;;10.40;;
30515;SDS011;17297;54.022;10.760;2022-10-31T06:14:07;15.73;;;11.20;;
30515;SDS011;17297;54.022;10.760;2022-10-31T06:16:46;16.98;;;11.10;;
30515;SDS011;17297;54.022;10.760;2022-10-31T06:19:31;15.63;;;10.57;;
30515;SDS011;17297;54.022;10.760;2022-10-31T06:21:57;16.85;;;11.75;;
30515;SDS011;17297;54.022;10.760;2022-10-31T06:24:23;20.25;;;11.68;;
30515;SDS011;17297;54.022;10.760;2022-10-31T06:26:54;17.40;;;11.88;;
30515;SDS011;17297;54.022;10.760;2022-10-31T06:29:20;18.65;;;11.25;;
30515;SDS011;17297;54.022;10.760;2022-10-31T06:31:57;16.33;;;10.20;;
30515;SDS011;17297;54.022;10.760;2022-10-31T06:34:22;17.52;;;12.30;;
30515;SDS011;17297;54.022;10.760;2022-10-31T06:36:47;18.98;;;13.05;;
30515;SDS011;17297;54.022;10.760;2022-10-31T06:39:13;19.85;;;11.50;;
30515;SDS011;17297;54.022;10.760;2022-10-31T06:41:39;18.40;;;11.55;;
30515;SDS011;17297;54.022;10.760;2022-10-31T06:44:08;15.35;;;10.57;;
30515;SDS011;17297;54.022;10.760;2022-10-31T06:46:52;15.40;;;10.13;;
30515;SDS011;17297;54.022;10.760;2022-10-31T06:49:37;15.25;;;10.00;;
30515;SDS011;17297;54.022;10.760;2022-10-31T06:52:09;14.20;;;10.35;;
30515;SDS011;17297;54.022;10.760;2022-10-31T06:54:34;14.55;;;9.93;;
30515;SDS011;17297;54.022;10.760;2022-10-31T06:56:59;16.05;;;9.95;;
30515;SDS011;17297;54.022;10.760;2022-10-31T06:59:25;15.98;;;10.43;;
30515;SDS011;17297;54.022;10.760;2022-10-31T07:02:09;16.05;;;11.13;;
30515;SDS011;17297;54.022;10.760;2022-10-31T07:04:34;12.75;;;9.02;;
30515;SDS011;17297;54.022;10.760;2022-10-31T07:07:00;14.10;;;9.57;;
30515;SDS011;17297;54.022;10.760;2022-10-31T07:09:25;11.27;;;8.73;;
30515;SDS011;17297;54.022;10.760;2022-10-31T07:11:51;11.15;;;8.38;;
30515;SDS011;17297;54.022;10.760;2022-10-31T07:14:18;15.18;;;9.73;;
30515;SDS011;17297;54.022;10.760;2022-10-31T07:16:43;15.57;;;9.60;;
30515;SDS011;17297;54.022;10.760;2022-10-31T07:19:13;14.00;;;8.77;;
30515;SDS011;17297;54.022;10.760;2022-10-31T07:21:38;13.50;;;9.38;;
30515;SDS011;17297;54.022;10.760;2022-10-31T07:24:05;13.50;;;8.68;;
30515;SDS011;17297;54.022;10.760;2022-10-31T07:26:56;13.60;;;8.57;;
30515;SDS011;17297;54.022;10.760;2022-10-31T07:29:21;13.82;;;9.32;;
30515;SDS011;17297;54.022;10.760;2022-10-31T07:31:48;16.33;;;10.77;;
30515;SDS011;17297;54.022;10.760;2022-10-31T07:34:20;15.25;;;9.77;;
30515;SDS011;17297;54.022;10.760;2022-10-31T07:37:20;17.45;;;10.15;;
30515;SDS011;17297;54.022;10.760;2022-10-31T07:39:47;15.13;;;10.23;;
30515;SDS011;17297;54.022;10.760;2022-10-31T07:42:12;17.73;;;10.30;;
30515;SDS011;17297;54.022;10.760;2022-10-31T07:44:42;24.95;;;11.38;;
30515;SDS011;17297;54.022;10.760;2022-10-31T07:50:25;15.85;;;9.02;;
30515;SDS011;17297;54.022;10.760;2022-10-31T07:53:11;16.85;;;9.52;;
30515;SDS011;17297;54.022;10.760;2022-10-31T07:56:10;13.68;;;9.18;;
30515;SDS011;17297;54.022;10.760;2022-10-31T07:58:36;15.07;;;10.02;;
30515;SDS011;17297;54.022;10.760;2022-10-31T08:01:01;13.45;;;9.02;;
30515;SDS011;17297;54.022;10.760;2022-10-31T08:03:36;12.45;;;7.75;;
30515;SDS011;17297;54.022;10.760;2022-10-31T08:06:34;13.05;;;8.48;;
30515;SDS011;17297;54.022;10.760;2022-10-31T08:09:12;11.27;;;8.52;;
30515;SDS011;17297;54.022;10.760;2022-10-31T08:11:38;11.50;;;7.22;;
30515;SDS011;17297;54.022;10.760;2022-10-31T08:14:03;10.25;;;7.10;;
30515;SDS011;17297;54.022;10.760;2022-10-31T08:16:29;9.68;;;6.53;;
30515;SDS011;17297;54.022;10.760;2022-10-31T08:19:00;9.20;;;6.57;;
30515;SDS011;17297;54.022;10.760;2022-10-31T08:21:27;11.68;;;7.90;;
30515;SDS011;17297;54.022;10.760;2022-10-31T08:23:53;12.15;;;7.40;;
30515;SDS011;17297;54.022;10.760;2022-10-31T08:26:22;10.18;;;6.70;;
30515;SDS011;17297;54.022;10.760;2022-10-31T08:28:49;10.80;;;6.63;;
30515;SDS011;17297;54.022;10.760;2022-10-31T08:31:15;12.25;;;7.55;;
30515;SDS011;17297;54.022;10.760;2022-10-31T08:33:41;12.65;;;7.43;;
30515;SDS011;17297;54.022;10.760;2022-10-31T08:36:29;9.77;;;6.57;;
30515;SDS011;17297;54.022;10.760;2022-10-31T08:39:08;12.18;;;7.13;;
30515;SDS011;17297;54.022;10.760;2022-10-31T08:41:34;8.70;;;5.95;;
30515;SDS011;17297;54.022;10.760;2022-10-31T08:44:00;10.68;;;7.45;;
30515;SDS011;17297;54.022;10.760;2022-10-31T08:46:25;9.43;;;6.10;;
30515;SDS011;17297;54.022;10.760;2022-10-31T08:48:51;9.13;;;5.88;;
30515;SDS011;17297;54.022;10.760;2022-10-31T08:51:18;7.95;;;6.18;;
30515;SDS011;17297;54.022;10.760;2022-10-31T08:53:43;12.15;;;5.32;;
30515;SDS011;17297;54.022;10.760;2022-10-31T08:56:29;9.43;;;6.07;;
30515;SDS011;17297;54.022;10.760;2022-10-31T08:58:55;9.88;;;5.55;;
30515;SDS011;17297;54.022;10.760;2022-10-31T09:01:30;9.40;;;5.13;;
30515;SDS011;17297;54.022;10.760;2022-10-31T09:03:55;9.02;;;5.28;;
30515;SDS011;17297;54.022;10.760;2022-10-31T09:06:21;7.80;;;5.20;;
30515;SDS011;17297;54.022;10.760;2022-10-31T09:08:47;9.75;;;5.43;;
30515;SDS011;17297;54.022;10.760;2022-10-31T09:11:12;7.57;;;5.93;;
30515;SDS011;17297;54.022;10.760;2022-10-31T09:13:56;6.78;;;5.35;;
30515;SDS011;17297;54.022;10.760;2022-10-31T09:16:41;9.38;;;6.05;;
30515;SDS011;17297;54.022;10.760;2022-10-31T09:19:13;9.57;;;5.28;;
30515;SDS011;17297;54.022;10.760;2022-10-31T09:21:44;6.15;;;4.05;;
30515;SDS011;17297;54.022;10.760;2022-10-31T09:24:09;9.80;;;5.50;;
30515;SDS011;17297;54.022;10.760;2022-10-31T09:26:35;8.05;;;5.15;;
30515;SDS011;17297;54.022;10.760;2022-10-31T09:29:11;6.93;;;4.80;;
30515;SDS011;17297;54.022;10.760;2022-10-31T09:31:38;6.38;;;4.55;;
30515;SDS011;17297;54.022;10.760;2022-10-31T09:34:18;7.28;;;4.90;;
30515;SDS011;17297;54.022;10.760;2022-10-31T09:36:59;6.35;;;4.30;;
30515;SDS011;17297;54.022;10.760;2022-10-31T09:39:24;6.88;;;4.95;;
30515;SDS011;17297;54.022;10.760;2022-10-31T09:41:58;6.68;;;4.55;;
30515;SDS011;17297;54.022;10.760;2022-10-31T09:44:37;5.05;;;3.80;;
30515;SDS011;17297;54.022;10.760;2022-10-31T09:58:27;4.22;;;3.75;;
30515;SDS011;17297;54.022;10.760;2022-10-31T10:00:56;8.93;;;4.38;;
30515;SDS011;17297;54.022;10.760;2022-10-31T10:03:30;7.45;;;3.72;;
30515;SDS011;17297;54.022;10.760;2022-10-31T10:06:29;5.72;;;4.15;;
30515;SDS011;17297;54.022;10.760;2022-10-31T10:09:18;5.88;;;4.03;;
30515;SDS011;17297;54.022;10.760;2022-10-31T10:20:35;5.78;;;4.93;;
30515;SDS011;17297;54.022;10.760;2022-10-31T10:23:21;5.05;;;3.20;;
30515;SDS011;17297;54.022;10.760;2022-10-31T10:25:53;4.50;;;2.95;;
30515;SDS011;17297;54.022;10.760;2022-10-31T10:28:27;5.43;;;3.58;;
30515;SDS011;17297;54.022;10.760;2022-10-31T10:33:52;5.78;;;3.38;;
30515;SDS011;17297;54.022;10.760;2022-10-31T10:36:21;7.03;;;3.75;;
30515;SDS011;17297;54.022;10.760;2022-10-31T10:39:00;4.97;;;4.18;;
30515;SDS011;17297;54.022;10.760;2022-10-31T10:41:32;4.05;;;3.15;;
30515;SDS011;17297;54.022;10.760;2022-10-31T10:43:58;6.45;;;3.90;;
30515;SDS011;17297;54.022;10.760;2022-10-31T10:46:41;5.38;;;3.20;;
30515;SDS011;17297;54.022;10.760;2022-10-31T10:49:30;3.92;;;2.65;;
30515;SDS011;17297;54.022;10.760;2022-10-31T11:00:22;7.82;;;4.15;;
30515;SDS011;17297;54.022;10.760;2022-10-31T11:02:49;6.43;;;4.28;;
30515;SDS011;17297;54.022;10.760;2022-10-31T11:05:22;5.95;;;4.07;;
30515;SDS011;17297;54.022;10.760;2022-10-31T11:07:55;6.57;;;3.55;;
30515;SDS011;17297;54.022;10.760;2022-10-31T11:10:20;4.85;;;3.10;;
30515;SDS011;17297;54.022;10.760;2022-10-31T11:12:57;5.53;;;2.92;;
30515;SDS011;17297;54.022;10.760;2022-10-31T11:15:26;5.45;;;3.53;;
30515;SDS011;17297;54.022;10.760;2022-10-31T11:17:54;6.25;;;3.92;;
30515;SDS011;17297;54.022;10.760;2022-10-31T11:20:32;7.88;;;3.30;;
30515;SDS011;17297;54.022;10.760;2022-10-31T11:23:10;4.70;;;3.05;;
30515;SDS011;17297;54.022;10.760;2022-10-31T11:26:02;5.38;;;3.78;;
30515;SDS011;17297;54.022;10.760;2022-10-31T11:28:30;5.50;;;3.67;;
30515;SDS011;17297;54.022;10.760;2022-10-31T11:31:11;5.50;;;3.40;;
30515;SDS011;17297;54.022;10.760;2022-10-31T11:33:48;5.15;;;2.97;;
30515;SDS011;17297;54.022;10.760;2022-10-31T11:36:24;6.13;;;3.50;;
30515;SDS011;17297;54.022;10.760;2022-10-31T11:38:52;4.25;;;2.45;;
30515;SDS011;17297;54.022;10.760;2022-10-31T11:41:29;3.50;;;2.58;;
30515;SDS011;17297;54.022;10.760;2022-10-31T11:43:58;3.63;;;2.47;;
30515;SDS011;17297;54.022;10.760;2022-10-31T11:48:57;5.97;;;3.80;;
30515;SDS011;17297;54.022;10.760;2022-10-31T11:51:24;5.25;;;2.90;;
30515;SDS011;17297;54.022;10.760;2022-10-31T11:53:52;3.10;;;2.35;;
30515;SDS011;17297;54.022;10.760;2022-10-31T11:56:20;4.65;;;2.60;;
30515;SDS011;17297;54.022;10.760;2022-10-31T11:58:54;4.30;;;2.50;;
30515;SDS011;17297;54.022;10.760;2022-10-31T12:01:27;3.70;;;2.75;;
30515;SDS011;17297;54.022;10.760;2022-10-31T12:04:02;5.05;;;2.95;;
30515;SDS011;17297;54.022;10.760;2022-10-31T12:06:33;4.45;;;2.78;;
30515;SDS011;17297;54.022;10.760;2022-10-31T12:09:01;3.75;;;3.03;;
30515;SDS011;17297;54.022;10.760;2022-10-31T12:17:05;2.85;;;2.22;;
30515;SDS011;17297;54.022;10.760;2022-10-31T12:22:38;2.67;;;2.05;;
30515;SDS011;17297;54.022;10.760;2022-10-31T12:31:13;4.57;;;3.72;;
30515;SDS011;17297;54.022;10.760;2022-10-31T12:45:57;2.60;;;2.20;;
30515;SDS011;17297;54.022;10.760;2022-10-31T12:51:33;4.13;;;2.63;;
30515;SDS011;17297;54.022;10.760;2022-10-31T12:54:15;3.47;;;2.60;;
30515;SDS011;17297;54.022;10.760;2022-10-31T12:59:29;2.72;;;2.30;;
30515;SDS011;17297;54.022;10.760;2022-10-31T13:02:14;4.47;;;2.70;;
30515;SDS011;17297;54.022;10.760;2022-10-31T13:04:47;4.35;;;2.30;;
30515;SDS011;17297;54.022;10.760;2022-10-31T13:07:38;3.58;;;2.03;;
30515;SDS011;17297;54.022;10.760;2022-10-31T13:12:37;4.40;;;2.38;;
30515;SDS011;17297;54.022;10.760;2022-10-31T13:15:05;3.45;;;2.38;;
30515;SDS011;17297;54.022;10.760;2022-10-31T13:17:52;3.88;;;3.00;;
30515;SDS011;17297;54.022;10.760;2022-10-31T13:20:22;5.47;;;3.05;;
30515;SDS011;17297;54.022;10.760;2022-10-31T13:23:08;4.25;;;2.40;;
30515;SDS011;17297;54.022;10.760;2022-10-31T13:25:41;4.93;;;2.75;;
30515;SDS011;17297;54.022;10.760;2022-10-31T13:30:51;4.38;;;2.50;;
30515;SDS011;17297;54.022;10.760;2022-10-31T13:33:29;3.75;;;2.30;;
30515;SDS011;17297;54.022;10.760;2022-10-31T13:38:57;4.60;;;2.67;;
30515;SDS011;17297;54.022;10.760;2022-10-31T13:41:41;4.35;;;2.78;;
30515;SDS011;17297;54.022;10.760;2022-10-31T13:44:16;2.92;;;2.08;;
30515;SDS011;17297;54.022;10.760;2022-10-31T13:46:46;3.33;;;2.67;;
30515;SDS011;17297;54.022;10.760;2022-10-31T13:54:39;4.97;;;2.78;;
30515;SDS011;17297;54.022;10.760;2022-10-31T13:57:15;5.18;;;3.17;;
30515;SDS011;17297;54.022;10.760;2022-10-31T13:59:51;5.82;;;3.03;;
30515;SDS011;17297;54.022;10.760;2022-10-31T14:02:23;5.43;;;3.55;;
30515;SDS011;17297;54.022;10.760;2022-10-31T14:04:54;5.60;;;3.28;;
30515;SDS011;17297;54.022;10.760;2022-10-31T14:07:22;4.65;;;2.78;;
30515;SDS011;17297;54.022;10.760;2022-10-31T14:10:05;5.97;;;3.53;;
30515;SDS011;17297;54.022;10.760;2022-10-31T14:12:45;4.47;;;2.90;;
30515;SDS011;17297;54.022;10.760;2022-10-31T14:15:22;3.85;;;3.13;;
30515;SDS011;17297;54.022;10.760;2022-10-31T14:22:42;9.38;;;3.33;;
30515;SDS011;17297;54.022;10.760;2022-10-31T14:28:01;4.75;;;2.92;;
30515;SDS011;17297;54.022;10.760;2022-10-31T14:30:29;6.00;;;3.30;;
30515;SDS011;17297;54.022;10.760;2022-10-31T14:32:57;4.65;;;3.25;;
30515;SDS011;17297;54.022;10.760;2022-10-31T14:35:27;4.90;;;3.50;;
30515;SDS011;17297;54.022;10.760;2022-10-31T14:38:15;3.28;;;2.50;;
30515;SDS011;17297;54.022;10.760;2022-10-31T14:41:05;3.95;;;2.55;;
30515;SDS011;17297;54.022;10.760;2022-10-31T14:49:37;4.22;;;3.00;;
30515;SDS011;17297;54.022;10.760;2022-10-31T14:52:08;4.45;;;3.00;;
30515;SDS011;17297;54.022;10.760;2022-10-31T14:54:41;3.80;;;3.03;;
30515;SDS011;17297;54.022;10.760;2022-10-31T14:57:15;4.28;;;3.05;;
30515;SDS011;17297;54.022;10.760;2022-10-31T14:59:49;7.95;;;4.78;;
30515;SDS011;17297;54.022;10.760;2022-10-31T15:02:30;5.13;;;3.17;;
30515;SDS011;17297;54.022;10.760;2022-10-31T15:05:11;3.85;;;2.97;;
30515;SDS011;17297;54.022;10.760;2022-10-31T15:07:48;7.20;;;3.67;;
30515;SDS011;17297;54.022;10.760;2022-10-31T15:10:20;6.70;;;3.90;;
30515;SDS011;17297;54.022;10.760;2022-10-31T15:13:07;7.40;;;3.75;;
30515;SDS011;17297;54.022;10.760;2022-10-31T15:15:34;4.88;;;2.70;;
30515;SDS011;17297;54.022;10.760;2022-10-31T15:18:00;3.50;;;2.35;;
30515;SDS011;17297;54.022;10.760;2022-10-31T15:20:28;4.78;;;3.88;;
30515;SDS011;17297;54.022;10.760;2022-10-31T15:22:58;4.72;;;3.35;;
30515;SDS011;17297;54.022;10.760;2022-10-31T15:25:25;6.40;;;3.38;;
30515;SDS011;17297;54.022;10.760;2022-10-31T15:27:55;5.82;;;4.05;;
30515;SDS011;17297;54.022;10.760;2022-10-31T15:32:47;6.07;;;3.63;;
30515;SDS011;17297;54.022;10.760;2022-10-31T15:35:24;4.32;;;3.40;;
30515;SDS011;17297;54.022;10.760;2022-10-31T15:37:53;6.60;;;3.70;;
30515;SDS011;17297;54.022;10.760;2022-10-31T15:40:19;5.35;;;4.28;;
30515;SDS011;17297;54.022;10.760;2022-10-31T15:42:51;6.53;;;3.80;;
30515;SDS011;17297;54.022;10.760;2022-10-31T15:45:21;6.00;;;4.05;;
30515;SDS011;17297;54.022;10.760;2022-10-31T15:47:56;9.57;;;5.28;;
30515;SDS011;17297;54.022;10.760;2022-10-31T15:50:31;7.13;;;4.63;;
30515;SDS011;17297;54.022;10.760;2022-10-31T15:53:06;6.95;;;4.45;;
30515;SDS011;17297;54.022;10.760;2022-10-31T15:55:52;6.78;;;3.85;;
30515;SDS011;17297;54.022;10.760;2022-10-31T15:58:19;6.10;;;4.22;;
30515;SDS011;17297;54.022;10.760;2022-10-31T16:00:45;3.50;;;3.03;;
30515;SDS011;17297;54.022;10.760;2022-10-31T16:03:23;6.18;;;3.88;;
30515;SDS011;17297;54.022;10.760;2022-10-31T16:05:51;5.28;;;3.45;;
30515;SDS011;17297;54.022;10.760;2022-10-31T16:10:53;3.65;;;2.92;;
30515;SDS011;17297;54.022;10.760;2022-10-31T16:13:20;5.70;;;3.42;;
30515;SDS011;17297;54.022;10.760;2022-10-31T16:16:03;4.47;;;2.85;;
30515;SDS011;17297;54.022;10.760;2022-10-31T16:18:38;4.38;;;3.35;;
30515;SDS011;17297;54.022;10.760;2022-10-31T16:21:05;3.90;;;3.13;;
30515;SDS011;17297;54.022;10.760;2022-10-31T16:23:32;5.30;;;3.78;;
30515;SDS011;17297;54.022;10.760;2022-10-31T16:25:57;5.35;;;3.58;;
30515;SDS011;17297;54.022;10.760;2022-10-31T16:28:24;6.82;;;4.07;;
30515;SDS011;17297;54.022;10.760;2022-10-31T16:30:51;5.50;;;4.82;;
30515;SDS011;17297;54.022;10.760;2022-10-31T16:33:23;7.70;;;5.68;;
30515;SDS011;17297;54.022;10.760;2022-10-31T16:38:22;8.13;;;5.60;;
30515;SDS011;17297;54.022;10.760;2022-10-31T16:40:48;6.60;;;4.88;;
30515;SDS011;17297;54.022;10.760;2022-10-31T16:43:15;6.32;;;4.22;;
30515;SDS011;17297;54.022;10.760;2022-10-31T16:45:46;6.80;;;5.18;;
30515;SDS011;17297;54.022;10.760;2022-10-31T16:48:17;8.82;;;4.78;;
30515;SDS011;17297;54.022;10.760;2022-10-31T16:50:45;10.55;;;6.70;;
30515;SDS011;17297;54.022;10.760;2022-10-31T16:53:11;7.43;;;5.20;;
30515;SDS011;17297;54.022;10.760;2022-10-31T16:55:48;8.88;;;5.93;;
30515;SDS011;17297;54.022;10.760;2022-10-31T16:58:23;10.05;;;6.68;;
30515;SDS011;17297;54.022;10.760;2022-10-31T17:00:51;10.20;;;7.50;;
30515;SDS011;17297;54.022;10.760;2022-10-31T17:03:17;8.10;;;5.75;;